Time;durP1;ratioP1;P1;durP2;ratioP2;P2;SDS_P1;SDS_P2;PMS_P1;PMS_P2;Temp;Humidity;BMP_temperature;BMP_pressure;BME280_temperature;BME280_humidity;BME280_pressure;Samples;Min_cycle;Max_cycle;Signal;HPM_P1;HPM_P2
2023/05/30 00:00:22;;;;;;;5.03;2.10;;;12.80;52.30;;;;;;5178718;28;21581;-44
2023/05/30 00:02:53;;;;;;;3.17;1.57;;;12.80;52.30;;;;;;5165294;28;20600;-45
2023/05/30 00:05:24;;;;;;;3.13;2.10;;;12.80;52.40;;;;;;5181167;28;20276;-44
2023/05/30 00:07:56;;;;;;;9.53;2.00;;;12.80;53.00;;;;;;5180506;28;20236;-44
2023/05/30 00:10:26;;;;;;;7.00;2.20;;;12.80;52.50;;;;;;5171973;28;20498;-45
2023/05/30 00:12:57;;;;;;;2.27;2.00;;;12.90;52.60;;;;;;5180661;28;20513;-45
2023/05/30 00:15:28;;;;;;;2.97;1.20;;;12.80;52.50;;;;;;5158559;28;20180;-43
2023/05/30 00:18:00;;;;;;;2.70;1.77;;;12.80;52.80;;;;;;5166667;28;20242;-45
2023/05/30 00:20:30;;;;;;;3.17;1.77;;;12.70;52.90;;;;;;5180325;28;20446;-45
2023/05/30 00:23:01;;;;;;;4.43;2.20;;;12.70;53.20;;;;;;5180342;28;20454;-45
2023/05/30 00:25:32;;;;;;;1.50;1.50;;;12.60;53.20;;;;;;5179367;28;20173;-45
2023/05/30 00:28:07;;;;;;;4.33;1.90;;;12.60;53.30;;;;;;5177355;28;21075;-44
2023/05/30 00:30:37;;;;;;;5.97;1.53;;;12.50;53.20;;;;;;5177004;28;20203;-47
2023/05/30 00:33:10;;;;;;;1.97;1.80;;;12.50;53.70;;;;;;5182020;28;20463;-45
2023/05/30 00:35:41;;;;;;;5.33;1.63;;;12.50;54.00;;;;;;5179262;28;20183;-44
2023/05/30 00:38:11;;;;;;;2.77;1.77;;;12.50;54.10;;;;;;5180060;28;20518;-46
2023/05/30 00:40:43;;;;;;;4.03;1.60;;;12.40;54.00;;;;;;5178831;28;20354;-46
2023/05/30 00:43:15;;;;;;;2.63;1.60;;;12.40;54.10;;;;;;5181148;28;20219;-46
2023/05/30 00:45:49;;;;;;;2.57;1.90;;;12.40;54.10;;;;;;5173054;28;22750;-44
2023/05/30 00:48:20;;;;;;;1.37;1.37;;;12.30;54.00;;;;;;5167450;28;20427;-46
2023/05/30 00:50:53;;;;;;;7.83;1.93;;;12.30;54.50;;;;;;5184260;28;20470;-44
2023/05/30 00:53:24;;;;;;;2.67;1.33;;;12.30;54.50;;;;;;5184472;28;20462;-45
2023/05/30 00:55:55;;;;;;;1.43;1.43;;;12.30;54.60;;;;;;5167569;28;20986;-45
2023/05/30 00:58:26;;;;;;;4.77;1.70;;;12.20;54.80;;;;;;5185481;28;20423;-48
2023/05/30 01:00:57;;;;;;;3.73;1.67;;;12.20;55.10;;;;;;5182703;28;20439;-44
2023/05/30 01:03:32;;;;;;;2.97;2.23;;;12.20;55.40;;;;;;5167177;28;20211;-44
2023/05/30 01:06:03;;;;;;;6.20;2.10;;;12.10;55.80;;;;;;5166538;28;20432;-45
2023/05/30 01:08:33;;;;;;;1.50;1.40;;;12.10;56.00;;;;;;5166018;28;20431;-43
2023/05/30 01:11:30;;;;;;;4.93;1.50;;;12.10;55.90;;;;;;5167045;28;20204;-45
2023/05/30 01:14:15;;;;;;;2.73;1.57;;;12.10;55.90;;;;;;5183250;28;20206;-44
2023/05/30 01:16:58;;;;;;;3.67;2.10;;;12.10;56.20;;;;;;5179916;28;20431;-45
2023/05/30 01:19:46;;;;;;;3.40;2.03;;;12.10;56.40;;;;;;5181963;28;20431;-44
2023/05/30 01:22:29;;;;;;;2.50;1.63;;;12.10;56.60;;;;;;5182500;28;20462;-46
2023/05/30 01:25:32;;;;;;;10.53;2.87;;;12.10;56.90;;;;;;5182209;28;21049;-44
2023/05/30 01:28:12;;;;;;;5.23;2.03;;;12.10;57.10;;;;;;5170478;28;20454;-44
2023/05/30 01:30:46;;;;;;;1.80;1.70;;;12.10;57.40;;;;;;5180214;28;21022;-46
2023/05/30 01:33:19;;;;;;;2.33;2.13;;;12.00;57.50;;;;;;5182878;28;20454;-46
2023/05/30 01:35:50;;;;;;;5.77;1.70;;;11.90;57.90;;;;;;5150898;28;20899;-45
2023/05/30 01:38:21;;;;;;;2.83;1.67;;;11.90;58.40;;;;;;5183210;28;20522;-44
2023/05/30 01:40:54;;;;;;;2.53;1.90;;;11.80;58.70;;;;;;5184929;28;20173;-45
2023/05/30 01:43:59;;;;;;;11.40;4.23;;;11.80;59.00;;;;;;5183150;28;20524;-44
2023/05/30 01:46:38;;;;;;;3.97;2.50;;;11.80;59.60;;;;;;5168878;28;20474;-44
2023/05/30 01:49:15;;;;;;;5.73;2.03;;;11.70;60.10;;;;;;5181781;28;20970;-45
2023/05/30 01:51:57;;;;;;;2.67;1.53;;;11.70;60.90;;;;;;5162600;28;20556;-45
2023/05/30 01:54:30;;;;;;;4.80;1.63;;;11.70;61.50;;;;;;5183752;28;20451;-44
2023/05/30 01:57:12;;;;;;;4.17;1.60;;;11.70;62.00;;;;;;5180955;28;20943;-44
2023/05/30 01:59:43;;;;;;;2.13;1.90;;;11.70;62.60;;;;;;5181041;28;20474;-46
2023/05/30 02:02:14;;;;;;;1.50;1.50;;;11.70;63.20;;;;;;5162661;28;20534;-45
2023/05/30 02:04:45;;;;;;;1.90;1.67;;;11.70;63.80;;;;;;5163476;28;21661;-44
2023/05/30 02:07:15;;;;;;;4.37;2.13;;;11.60;64.60;;;;;;5181737;28;20224;-44
2023/05/30 02:09:46;;;;;;;3.60;1.93;;;11.60;65.60;;;;;;5183268;28;20180;-45
2023/05/30 02:12:17;;;;;;;3.40;1.50;;;11.50;66.50;;;;;;5182977;28;20180;-45
2023/05/30 02:14:47;;;;;;;3.00;1.60;;;11.50;67.90;;;;;;5183473;28;20374;-45
2023/05/30 02:17:21;;;;;;;2.83;1.67;;;11.50;69.20;;;;;;5182015;28;20196;-44
2023/05/30 02:19:51;;;;;;;9.27;1.83;;;11.50;70.20;;;;;;5183918;28;20641;-46
2023/05/30 02:22:22;;;;;;;4.70;1.63;;;11.40;71.10;;;;;;5185668;28;20427;-44
2023/05/30 02:24:55;;;;;;;4.43;1.70;;;11.50;72.20;;;;;;5185019;28;20200;-44
2023/05/30 02:27:25;;;;;;;2.50;2.30;;;11.50;73.30;;;;;;5165782;28;20180;-46
2023/05/30 02:29:56;;;;;;;3.57;1.87;;;11.50;75.10;;;;;;5183780;28;20542;-45
2023/05/30 02:32:27;;;;;;;8.63;2.03;;;11.50;75.30;;;;;;5182711;28;20611;-45
2023/05/30 02:34:57;;;;;;;7.20;1.87;;;11.50;76.80;;;;;;5184784;28;20200;-45
2023/05/30 02:37:28;;;;;;;5.13;1.50;;;11.50;78.20;;;;;;5184267;28;20547;-44
2023/05/30 02:39:58;;;;;;;2.30;1.90;;;11.50;79.10;;;;;;5184809;28;20207;-44
2023/05/30 02:42:30;;;;;;;3.10;1.93;;;11.40;80.20;;;;;;5182267;28;20184;-45
2023/05/30 02:45:00;;;;;;;5.27;2.00;;;11.40;81.30;;;;;;5184468;28;20279;-45
2023/05/30 02:47:31;;;;;;;4.47;1.87;;;11.40;82.20;;;;;;5181948;28;20530;-48
2023/05/30 02:50:02;;;;;;;4.27;1.97;;;11.40;83.60;;;;;;5181706;28;20200;-45
2023/05/30 02:52:32;;;;;;;6.90;2.10;;;11.40;84.90;;;;;;5181661;28;20242;-45
2023/05/30 02:55:04;;;;;;;6.03;2.87;;;11.40;86.70;;;;;;5183875;28;20275;-46
2023/05/30 02:57:35;;;;;;;5.33;2.23;;;11.40;87.60;;;;;;5182650;28;20176;-43
2023/05/30 03:00:07;;;;;;;1.47;1.47;;;11.40;88.50;;;;;;5177410;28;20514;-46
2023/05/30 03:02:37;;;;;;;3.90;1.93;;;11.40;89.90;;;;;;5183749;28;20215;-44
2023/05/30 03:05:10;;;;;;;4.40;1.93;;;11.30;90.20;;;;;;5183598;28;20443;-45
2023/05/30 03:07:41;;;;;;;3.00;2.30;;;11.20;91.10;;;;;;5164860;28;20188;-44
2023/05/30 03:10:11;;;;;;;6.20;2.00;;;11.20;91.80;;;;;;5180154;28;20488;-45
2023/05/30 03:12:42;;;;;;;7.60;2.30;;;11.20;92.40;;;;;;5184393;28;20195;-44
2023/05/30 03:15:13;;;;;;;2.10;1.83;;;11.20;93.00;;;;;;5186243;28;20184;-45
2023/05/30 03:17:43;;;;;;;3.60;2.20;;;11.30;93.60;;;;;;5163316;28;20184;-44
2023/05/30 03:20:14;;;;;;;15.40;2.57;;;11.30;93.70;;;;;;5181217;28;20188;-45
2023/05/30 03:22:45;;;;;;;4.07;1.83;;;11.30;94.00;;;;;;5184015;28;20723;-44
2023/05/30 03:25:16;;;;;;;3.63;2.33;;;11.40;94.00;;;;;;5180545;28;20192;-44
2023/05/30 03:27:50;;;;;;;2.70;2.00;;;11.40;94.00;;;;;;5180362;28;20799;-44
2023/05/30 03:30:25;;;;;;;2.70;1.77;;;11.50;94.20;;;;;;5177083;28;20236;-46
2023/05/30 03:32:56;;;;;;;2.57;2.10;;;11.50;94.40;;;;;;5180694;28;20649;-46
2023/05/30 03:35:27;;;;;;;5.73;2.63;;;11.50;94.40;;;;;;5162531;28;20822;-45
2023/05/30 03:37:57;;;;;;;4.97;2.77;;;11.50;94.40;;;;;;5165133;28;20434;-44
2023/05/30 03:40:28;;;;;;;3.13;1.83;;;11.50;94.60;;;;;;5175096;28;20192;-44
2023/05/30 03:42:59;;;;;;;7.60;2.53;;;11.50;94.90;;;;;;5179531;28;20184;-46
2023/05/30 03:45:30;;;;;;;5.07;2.67;;;11.50;95.10;;;;;;5182909;28;20230;-45
2023/05/30 03:48:00;;;;;;;4.00;2.23;;;11.50;94.80;;;;;;5180796;28;20184;-43
2023/05/30 03:50:31;;;;;;;2.73;2.53;;;11.60;94.90;;;;;;5176529;28;20201;-45
2023/05/30 03:53:02;;;;;;;9.57;2.30;;;11.60;95.00;;;;;;5183796;28;20234;-45
2023/05/30 03:55:32;;;;;;;5.40;2.40;;;11.60;95.10;;;;;;5161097;28;20180;-44
2023/05/30 03:58:03;;;;;;;3.70;2.27;;;11.60;95.30;;;;;;5177950;28;20629;-45
2023/05/30 04:00:33;;;;;;;4.23;2.83;;;11.60;95.40;;;;;;5180064;28;20223;-45
2023/05/30 04:03:05;;;;;;;3.73;2.70;;;11.60;95.60;;;;;;5181571;28;20222;-44
2023/05/30 04:05:36;;;;;;;2.00;1.63;;;11.70;95.60;;;;;;5161081;28;20187;-44
2023/05/30 04:08:06;;;;;;;4.97;2.20;;;11.70;95.80;;;;;;5182642;28;20438;-45
2023/05/30 04:10:37;;;;;;;8.57;2.30;;;11.70;96.00;;;;;;5181163;28;20243;-45
2023/05/30 04:13:07;;;;;;;2.57;2.27;;;11.80;96.30;;;;;;5181052;28;20222;-45
2023/05/30 04:15:38;;;;;;;3.97;2.10;;;11.90;96.50;;;;;;5181803;28;20618;-44
2023/05/30 04:18:09;;;;;;;3.70;2.43;;;12.00;96.50;;;;;;5182669;28;20720;-45
2023/05/30 04:20:39;;;;;;;3.13;2.13;;;12.10;96.60;;;;;;5164730;28;20235;-44
2023/05/30 04:23:10;;;;;;;4.97;2.23;;;12.30;96.60;;;;;;5165017;28;20208;-47
2023/05/30 04:25:44;;;;;;;5.97;2.00;;;12.40;96.30;;;;;;5183971;28;20199;-46
2023/05/30 04:28:17;;;;;;;6.10;2.30;;;12.40;96.00;;;;;;5184313;28;20187;-45
2023/05/30 04:30:48;;;;;;;6.00;2.57;;;12.40;96.00;;;;;;5182872;28;20985;-43
2023/05/30 04:33:19;;;;;;;5.10;2.00;;;12.50;95.80;;;;;;5178817;28;20542;-46
2023/05/30 04:35:50;;;;;;;3.43;2.47;;;12.50;95.60;;;;;;5181631;28;20482;-44
2023/05/30 04:38:21;;;;;;;7.63;2.33;;;12.60;95.60;;;;;;5182811;28;20486;-45
2023/05/30 04:40:52;;;;;;;2.10;2.00;;;12.60;95.40;;;;;;5180703;28;20192;-47
2023/05/30 04:43:22;;;;;;;3.47;1.87;;;12.80;94.70;;;;;;5166847;28;20246;-44
2023/05/30 04:45:54;;;;;;;5.63;1.90;;;12.90;94.10;;;;;;5176255;28;20214;-46
2023/05/30 04:48:25;;;;;;;3.63;2.20;;;13.30;92.70;;;;;;5182528;28;20271;-46
2023/05/30 04:50:56;;;;;;;8.60;3.00;;;13.90;90.40;;;;;;5179069;28;20550;-45
2023/05/30 04:53:27;;;;;;;3.23;1.90;;;14.80;85.70;;;;;;5165297;28;20250;-46
2023/05/30 04:55:58;;;;;;;4.10;2.53;;;15.30;78.30;;;;;;5181451;28;20431;-46
2023/05/30 04:58:28;;;;;;;8.97;2.47;;;15.90;73.50;;;;;;5181690;28;20192;-46
2023/05/30 05:00:59;;;;;;;5.07;2.60;;;16.50;69.80;;;;;;5179332;28;20176;-45
2023/05/30 05:03:29;;;;;;;6.40;2.57;;;16.90;67.60;;;;;;5183175;28;20578;-46
2023/05/30 05:06:00;;;;;;;4.33;2.07;;;17.20;65.30;;;;;;5180813;28;20190;-45
2023/05/30 05:08:31;;;;;;;3.43;2.20;;;17.60;61.10;;;;;;5183285;28;20213;-45
2023/05/30 05:11:03;;;;;;;12.20;3.27;;;18.30;57.30;;;;;;5178973;28;20215;-45
2023/05/30 05:13:34;;;;;;;2.60;2.40;;;19.60;55.10;;;;;;5174646;28;20196;-43
2023/05/30 05:16:06;;;;;;;4.63;2.10;;;20.20;52.00;;;;;;5161639;28;20446;-44
2023/05/30 05:18:36;;;;;;;6.30;2.73;;;20.40;50.80;;;;;;5170141;28;20444;-45
2023/05/30 05:21:07;;;;;;;5.00;2.50;;;20.60;49.10;;;;;;5183343;28;20447;-45
2023/05/30 05:23:38;;;;;;;4.77;3.07;;;21.00;49.10;;;;;;5180365;28;20204;-45
2023/05/30 05:26:08;;;;;;;5.40;2.13;;;21.70;46.70;;;;;;5178454;28;20327;-47
2023/05/30 05:28:39;;;;;;;5.10;2.17;;;22.80;45.00;;;;;;5149076;28;20774;-45
2023/05/30 05:31:10;;;;;;;3.37;2.37;;;24.30;41.90;;;;;;5179098;28;20211;-46
2023/05/30 05:33:40;;;;;;;2.73;1.73;;;25.80;39.00;;;;;;5170564;28;20217;-45
2023/05/30 05:36:11;;;;;;;2.20;1.60;;;27.50;36.00;;;;;;5183900;28;20259;-45
2023/05/30 05:38:42;;;;;;;8.80;2.07;;;28.70;33.70;;;;;;5166082;28;20190;-45
2023/05/30 05:41:12;;;;;;;3.63;2.33;;;29.40;31.10;;;;;;5185108;28;20184;-47
2023/05/30 05:43:43;;;;;;;2.60;1.80;;;30.60;29.90;;;;;;5182010;28;20588;-47
2023/05/30 05:46:14;;;;;;;2.43;1.57;;;30.00;28.80;;;;;;5184326;28;20207;-45
2023/05/30 05:48:45;;;;;;;3.10;1.77;;;29.40;29.20;;;;;;5181956;28;20188;-45
2023/05/30 05:51:15;;;;;;;7.93;2.13;;;29.80;29.50;;;;;;5177922;28;20227;-45
2023/05/30 05:53:46;;;;;;;5.20;2.50;;;30.80;28.80;;;;;;5177059;28;20214;-44
2023/05/30 05:56:16;;;;;;;3.17;2.90;;;31.40;28.30;;;;;;5182308;28;20210;-46
2023/05/30 05:58:47;;;;;;;5.30;1.90;;;32.50;27.30;;;;;;5179871;28;20184;-46
2023/05/30 06:01:18;;;;;;;6.60;2.10;;;32.80;26.20;;;;;;5186426;28;20523;-45
2023/05/30 06:03:48;;;;;;;3.13;1.73;;;32.90;26.30;;;;;;5180631;28;20707;-45
2023/05/30 06:06:19;;;;;;;2.37;1.80;;;33.00;25.90;;;;;;5165505;28;20184;-46
2023/05/30 06:08:50;;;;;;;4.33;1.90;;;33.30;25.90;;;;;;5183707;28;20183;-46
2023/05/30 06:11:21;;;;;;;7.70;2.20;;;33.50;25.00;;;;;;5182790;28;20211;-46
2023/05/30 06:13:52;;;;;;;4.43;2.10;;;33.10;25.30;;;;;;5182497;28;20199;-44
2023/05/30 06:16:22;;;;;;;6.40;2.07;;;33.40;24.80;;;;;;5164453;28;20449;-44
2023/05/30 06:18:53;;;;;;;9.40;2.40;;;34.00;24.80;;;;;;5177975;28;20556;-48
2023/05/30 06:21:23;;;;;;;6.90;2.03;;;34.40;23.80;;;;;;5181168;28;20667;-45
2023/05/30 06:23:54;;;;;;;1.77;1.53;;;34.30;23.90;;;;;;5182279;28;20231;-46
2023/05/30 06:26:25;;;;;;;2.33;2.13;;;34.30;24.00;;;;;;5186327;28;20179;-45
2023/05/30 06:28:56;;;;;;;2.13;1.63;;;34.70;24.10;;;;;;5184821;28;20711;-46
2023/05/30 06:31:26;;;;;;;1.97;1.70;;;34.90;23.50;;;;;;5176336;28;20235;-45
2023/05/30 06:33:57;;;;;;;2.90;1.70;;;34.30;23.90;;;;;;5181580;28;20203;-46
2023/05/30 06:36:27;;;;;;;2.87;1.67;;;35.00;23.90;;;;;;5184282;28;20176;-46
2023/05/30 06:38:58;;;;;;;1.53;1.43;;;34.80;23.20;;;;;;5172139;28;20699;-47
2023/05/30 06:41:29;;;;;;;4.40;2.10;;;35.00;23.70;;;;;;5186073;28;20234;-46
2023/05/30 06:43:59;;;;;;;5.63;1.43;;;34.00;23.40;;;;;;5160929;28;21339;-46
2023/05/30 06:46:30;;;;;;;2.37;1.47;;;34.00;24.60;;;;;;5178834;28;20671;-46
2023/05/30 06:49:01;;;;;;;3.63;1.30;;;34.80;23.60;;;;;;5159594;28;20571;-46
2023/05/30 06:51:32;;;;;;;5.63;1.97;;;34.40;23.70;;;;;;5175667;28;20203;-47
2023/05/30 06:54:03;;;;;;;6.33;2.00;;;34.60;23.60;;;;;;5176796;28;20204;-46
2023/05/30 06:56:33;;;;;;;2.47;1.90;;;34.90;23.80;;;;;;5182876;28;20186;-46
2023/05/30 06:59:04;;;;;;;1.47;1.37;;;34.70;23.90;;;;;;5184667;28;20210;-45
2023/05/30 07:01:35;;;;;;;6.87;3.00;;;34.70;23.80;;;;;;5173007;28;20213;-46
2023/05/30 07:04:05;;;;;;;2.67;2.13;;;35.10;23.60;;;;;;5168323;28;20690;-47
2023/05/30 07:06:36;;;;;;;5.40;1.90;;;34.80;23.80;;;;;;5154689;28;20214;-45
2023/05/30 07:09:07;;;;;;;4.65;1.50;;;35.50;23.50;;;;;;5186601;28;20193;-47
2023/05/30 07:11:37;;;;;;;4.10;1.48;;;36.30;22.80;;;;;;5180406;28;20302;-47
2023/05/30 07:14:08;;;;;;;4.97;1.85;;;36.10;22.60;;;;;;5180187;28;20204;-45
2023/05/30 07:16:38;;;;;;;4.93;2.38;;;36.10;22.60;;;;;;5182593;28;20211;-44
2023/05/30 07:19:10;;;;;;;6.00;1.67;;;36.60;22.70;;;;;;5182654;28;20425;-45
2023/05/30 07:21:40;;;;;;;3.08;1.63;;;36.10;22.50;;;;;;5161323;28;20266;-44
2023/05/30 07:24:11;;;;;;;2.93;2.03;;;35.90;23.20;;;;;;5180148;28;20290;-45
2023/05/30 07:26:41;;;;;;;2.97;1.47;;;35.90;22.50;;;;;;5180120;28;20191;-44
2023/05/30 07:29:12;;;;;;;9.63;2.45;;;35.60;22.40;;;;;;5181603;28;20184;-44
2023/05/30 07:31:42;;;;;;;2.13;1.80;;;35.50;23.20;;;;;;5177991;28;20223;-44
2023/05/30 07:34:13;;;;;;;1.60;1.30;;;35.50;22.70;;;;;;5180270;28;20222;-43
2023/05/30 07:36:44;;;;;;;2.70;1.57;;;35.20;22.20;;;;;;5163006;28;20180;-44
2023/05/30 07:39:15;;;;;;;2.17;1.90;;;35.10;22.90;;;;;;5178705;28;20222;-45
2023/05/30 07:41:45;;;;;;;4.13;1.10;;;35.20;21.80;;;;;;5182001;28;20191;-46
2023/05/30 07:44:16;;;;;;;3.40;1.27;;;34.60;22.60;;;;;;5180492;28;20508;-45
2023/05/30 07:46:46;;;;;;;4.00;1.33;;;34.00;22.80;;;;;;5165386;28;20179;-45
2023/05/30 07:49:19;;;;;;;4.47;1.90;;;34.00;23.30;;;;;;5180972;28;20275;-44
2023/05/30 07:51:49;;;;;;;4.17;1.87;;;35.00;22.50;;;;;;5182022;28;20203;-44
2023/05/30 07:54:20;;;;;;;2.07;1.70;;;34.40;22.60;;;;;;5182049;28;20695;-46
2023/05/30 07:56:51;;;;;;;2.77;1.83;;;34.40;23.00;;;;;;5161553;28;20182;-45
2023/05/30 07:59:21;;;;;;;1.67;1.57;;;35.00;22.50;;;;;;5176619;28;20192;-45
2023/05/30 08:01:52;;;;;;;2.00;1.90;;;35.30;21.60;;;;;;5165540;28;20183;-46
2023/05/30 08:04:23;;;;;;;3.03;1.17;;;34.70;21.30;;;;;;5184230;28;20452;-45
2023/05/30 08:06:53;;;;;;;7.30;2.23;;;32.90;22.50;;;;;;5167779;28;20262;-45
2023/05/30 08:09:24;;;;;;;7.83;1.60;;;32.40;23.80;;;;;;5171820;28;20191;-45
2023/05/30 08:11:55;;;;;;;4.20;1.77;;;31.90;24.00;;;;;;5180539;28;20207;-45
2023/05/30 08:14:26;;;;;;;3.90;2.07;;;32.20;24.60;;;;;;5186539;28;20492;-43
2023/05/30 08:16:56;;;;;;;4.87;2.17;;;33.30;23.70;;;;;;5185263;28;20270;-45
2023/05/30 08:19:27;;;;;;;3.83;2.20;;;32.70;23.20;;;;;;5183177;28;20195;-46
2023/05/30 08:21:58;;;;;;;1.57;1.47;;;32.80;23.80;;;;;;5186755;28;20179;-46
2023/05/30 08:24:28;;;;;;;2.67;2.00;;;32.40;23.70;;;;;;5187543;28;20203;-45
2023/05/30 08:27:00;;;;;;;4.13;1.43;;;33.10;23.40;;;;;;5187003;28;20171;-45
2023/05/30 08:29:32;;;;;;;2.47;2.00;;;33.00;22.80;;;;;;5192478;28;20183;-44
2023/05/30 08:32:02;;;;;;;1.93;1.80;;;32.80;22.60;;;;;;5185681;28;20488;-45
2023/05/30 08:34:34;;;;;;;2.87;1.50;;;31.60;23.10;;;;;;5185967;28;20447;-46
2023/05/30 08:37:06;;;;;;;6.10;1.87;;;31.40;24.20;;;;;;5188664;28;20180;-44
2023/05/30 08:39:36;;;;;;;1.90;1.70;;;31.30;24.20;;;;;;5168081;28;20834;-44
2023/05/30 08:42:08;;;;;;;3.50;2.00;;;30.50;23.90;;;;;;5172402;28;20437;-45
2023/05/30 08:44:40;;;;;;;2.20;1.67;;;30.10;24.30;;;;;;5186792;28;20219;-44
2023/05/30 08:47:12;;;;;;;2.40;1.30;;;29.60;25.00;;;;;;5164288;28;20536;-44
2023/05/30 08:49:45;;;;;;;13.20;2.77;;;28.70;26.00;;;;;;5163043;28;20557;-45
2023/05/30 08:52:16;;;;;;;3.33;1.40;;;26.60;27.60;;;;;;5184636;28;20485;-45
2023/05/30 08:55:06;;;;;;;5.87;2.40;;;24.70;29.50;;;;;;5162456;28;20459;-45
2023/05/30 08:57:59;;;;;;;5.53;1.73;;;23.40;30.80;;;;;;5181636;28;20180;-45
2023/05/30 09:00:32;;;;;;;4.43;1.83;;;22.20;29.90;;;;;;5174253;28;20516;-44
2023/05/30 09:03:05;;;;;;;3.50;1.80;;;21.80;31.50;;;;;;5181047;28;20529;-45
2023/05/30 09:05:37;;;;;;;3.00;1.93;;;21.50;32.00;;;;;;5179762;28;20431;-45
2023/05/30 09:08:09;;;;;;;2.90;2.07;;;21.20;33.50;;;;;;5184031;28;20434;-45
2023/05/30 09:10:48;;;;;;;4.30;1.67;;;21.10;33.40;;;;;;5177579;28;20468;-45
2023/05/30 09:13:18;;;;;;;5.60;1.93;;;20.70;33.80;;;;;;5187914;28;20450;-46
2023/05/30 09:15:49;;;;;;;6.70;1.40;;;20.70;35.30;;;;;;5168505;28;20897;-44
2023/05/30 09:18:20;;;;;;;4.63;1.60;;;20.50;35.30;;;;;;5190402;28;20173;-44
2023/05/30 09:20:51;;;;;;;5.60;2.23;;;20.40;35.60;;;;;;5187446;28;20189;-44
2023/05/30 09:23:22;;;;;;;6.90;1.90;;;20.30;35.70;;;;;;5185586;28;20447;-44
2023/05/30 09:25:54;;;;;;;1.77;1.67;;;20.30;36.10;;;;;;5184529;28;20187;-44
2023/05/30 09:28:26;;;;;;;5.27;2.10;;;20.30;36.00;;;;;;5185063;28;20768;-45
2023/05/30 09:30:58;;;;;;;6.10;2.20;;;20.20;35.30;;;;;;5178934;28;20844;-45
2023/05/30 09:33:50;;;;;;;5.17;1.90;;;20.40;36.20;;;;;;5182850;28;20462;-44
2023/05/30 09:36:23;;;;;;;3.40;1.93;;;20.40;37.00;;;;;;5184812;28;20443;-43
2023/05/30 09:38:56;;;;;;;3.70;1.40;;;20.20;37.10;;;;;;5184711;28;20467;-43
2023/05/30 09:41:28;;;;;;;4.30;2.33;;;20.00;37.40;;;;;;5187090;28;20955;-46
2023/05/30 09:43:59;;;;;;;2.97;2.23;;;19.90;37.70;;;;;;5168665;28;20475;-44
2023/05/30 09:46:30;;;;;;;5.07;3.23;;;20.00;36.80;;;;;;5189496;28;20478;-44
2023/05/30 09:49:13;;;;;;;3.57;2.20;;;20.10;36.30;;;;;;5184959;28;20435;-45
2023/05/30 09:51:43;;;;;;;3.13;1.80;;;20.00;36.50;;;;;;5186695;28;20462;-45
2023/05/30 09:54:14;;;;;;;4.60;1.93;;;20.10;35.60;;;;;;5185058;28;20459;-43
2023/05/30 09:56:45;;;;;;;3.70;1.60;;;20.30;35.40;;;;;;5184889;28;20176;-43
2023/05/30 09:59:16;;;;;;;3.70;1.87;;;20.30;35.20;;;;;;5185373;28;20517;-46
2023/05/30 10:01:48;;;;;;;4.50;1.97;;;20.30;34.90;;;;;;5183980;28;20221;-44
2023/05/30 10:04:20;;;;;;;5.53;2.20;;;20.20;35.10;;;;;;5168894;28;20703;-45
2023/05/30 10:06:54;;;;;;;6.43;2.27;;;20.20;35.40;;;;;;5165131;28;20452;-44
2023/05/30 10:09:24;;;;;;;3.37;2.27;;;20.10;34.80;;;;;;5184720;28;20447;-44
2023/05/30 10:11:56;;;;;;;5.30;2.40;;;20.10;35.10;;;;;;5166710;28;20513;-46
2023/05/30 10:14:27;;;;;;;4.90;1.83;;;20.10;34.80;;;;;;5178709;28;20196;-44
2023/05/30 10:17:03;;;;;;;5.90;2.40;;;20.10;34.30;;;;;;5180956;28;20517;-44
2023/05/30 10:19:46;;;;;;;5.53;2.60;;;20.20;34.90;;;;;;5181466;28;20434;-45
2023/05/30 10:22:21;;;;;;;3.30;1.80;;;20.10;34.70;;;;;;5182553;28;20489;-47
2023/05/30 10:24:54;;;;;;;2.73;1.10;;;20.00;34.70;;;;;;5183668;28;20866;-44
2023/05/30 10:27:30;;;;;;;2.30;1.70;;;20.00;34.60;;;;;;5181451;28;20419;-45
2023/05/30 10:30:06;;;;;;;1.83;1.40;;;20.10;34.90;;;;;;5176405;28;20450;-44
2023/05/30 10:32:41;;;;;;;3.90;1.67;;;20.10;35.30;;;;;;5176849;28;20442;-44
2023/05/30 10:35:17;;;;;;;4.00;2.00;;;20.30;35.50;;;;;;5176862;28;20454;-46
2023/05/30 10:37:49;;;;;;;5.43;2.27;;;20.30;34.30;;;;;;5176364;28;20447;-44
2023/05/30 10:41:11;;;;;;;3.20;1.63;;;20.50;34.00;;;;;;5175541;28;20440;-45
2023/05/30 10:44:11;;;;;;;5.80;2.23;;;20.50;34.20;;;;;;5135231;28;20476;-45
2023/05/30 10:47:11;;;;;;;2.17;2.00;;;20.40;34.60;;;;;;5153297;28;20455;-46
2023/05/30 10:49:44;;;;;;;8.57;2.50;;;20.50;34.10;;;;;;5126655;28;20555;-44
2023/05/30 10:52:17;;;;;;;3.07;1.93;;;20.50;34.60;;;;;;5170891;28;20538;-46
2023/05/30 10:54:50;;;;;;;1.93;1.83;;;20.50;33.10;;;;;;5173500;28;20538;-44
2023/05/30 10:57:27;;;;;;;3.27;1.70;;;20.40;33.60;;;;;;5180307;28;20435;-52
2023/05/30 11:00:24;;;;;;;3.50;1.97;;;20.30;33.40;;;;;;5178226;28;20466;-45
2023/05/30 11:02:54;;;;;;;3.67;1.70;;;20.40;33.90;;;;;;5161169;28;20436;-44
2023/05/30 11:05:32;;;;;;;10.67;2.50;;;20.40;34.20;;;;;;5176932;28;20449;-44
2023/05/30 11:08:03;;;;;;;7.30;1.87;;;20.50;34.40;;;;;;5189938;28;20653;-45
2023/05/30 11:10:35;;;;;;;6.00;1.80;;;20.60;34.40;;;;;;5170274;28;20614;-44
2023/05/30 11:13:08;;;;;;;3.00;2.00;;;20.50;33.30;;;;;;5182507;28;20219;-44
2023/05/30 11:15:45;;;;;;;3.33;1.43;;;20.40;33.20;;;;;;5185729;28;20953;-44
2023/05/30 11:18:18;;;;;;;10.30;1.53;;;20.40;34.00;;;;;;5184948;28;20446;-45
2023/05/30 11:20:51;;;;;;;2.23;1.60;;;20.50;34.80;;;;;;5181565;28;20922;-45
2023/05/30 11:23:23;;;;;;;2.67;1.40;;;20.50;34.60;;;;;;5187927;28;20494;-45
2023/05/30 11:25:55;;;;;;;2.30;1.53;;;20.60;35.00;;;;;;5186377;28;21052;-44
2023/05/30 11:28:34;;;;;;;5.23;2.03;;;20.70;35.20;;;;;;5187199;28;20447;-44
2023/05/30 11:31:16;;;;;;;1.40;1.30;;;20.80;34.90;;;;;;5188258;28;20798;-46
2023/05/30 11:33:48;;;;;;;2.40;1.50;;;20.90;34.40;;;;;;5189207;28;20458;-44
2023/05/30 11:36:20;;;;;;;3.13;2.10;;;21.00;34.10;;;;;;5189275;28;20423;-46
2023/05/30 11:38:52;;;;;;;6.30;1.47;;;20.90;34.20;;;;;;5189250;28;20580;-43
2023/05/30 11:41:23;;;;;;;4.00;1.73;;;20.90;34.10;;;;;;5173841;28;20443;-43
2023/05/30 11:43:55;;;;;;;6.17;2.00;;;21.00;34.20;;;;;;5152439;28;20843;-44
2023/05/30 11:46:25;;;;;;;1.27;1.27;;;21.10;34.20;;;;;;5185847;28;20517;-46
2023/05/30 11:48:57;;;;;;;2.73;2.10;;;21.00;34.30;;;;;;5186659;28;20918;-48
2023/05/30 11:51:30;;;;;;;4.70;2.20;;;21.00;34.30;;;;;;5170256;28;20212;-46
2023/05/30 11:54:01;;;;;;;1.77;1.60;;;20.90;34.80;;;;;;5185513;28;20445;-43
2023/05/30 11:56:32;;;;;;;9.50;1.80;;;20.70;34.70;;;;;;5184270;28;20453;-44
2023/05/30 11:59:02;;;;;;;1.77;1.60;;;20.90;35.50;;;;;;5179485;28;20439;-46
2023/05/30 12:01:33;;;;;;;3.07;1.83;;;20.90;34.80;;;;;;5172285;28;20367;-48
2023/05/30 12:04:05;;;;;;;7.20;2.37;;;20.90;35.40;;;;;;5171320;28;20219;-48
2023/05/30 12:06:36;;;;;;;3.00;1.57;;;21.00;35.60;;;;;;5176694;28;20259;-45
2023/05/30 12:09:10;;;;;;;6.40;2.00;;;21.00;35.60;;;;;;5185538;28;20435;-44
2023/05/30 12:11:59;;;;;;;3.23;3.03;;;20.90;34.90;;;;;;5183631;28;20212;-46
2023/05/30 12:14:44;;;;;;;2.90;2.00;;;20.90;34.70;;;;;;5184514;28;20455;-44
2023/05/30 12:17:18;;;;;;;1.73;1.53;;;20.90;34.90;;;;;;5186898;28;20439;-44
2023/05/30 12:20:01;;;;;;;3.27;1.67;;;20.90;35.50;;;;;;5183858;28;20427;-45
2023/05/30 12:22:31;;;;;;;2.13;1.43;;;21.00;35.80;;;;;;5167586;28;20871;-45
2023/05/30 12:25:11;;;;;;;1.10;1.00;;;21.10;35.70;;;;;;5182597;28;20476;-46
2023/05/30 12:27:43;;;;;;;2.10;1.30;;;21.10;36.00;;;;;;5179466;28;20180;-45
2023/05/30 12:30:16;;;;;;;4.77;1.83;;;21.10;35.80;;;;;;5182900;28;20978;-45
2023/05/30 12:32:46;;;;;;;1.67;1.47;;;21.10;36.10;;;;;;5182017;28;20431;-45
2023/05/30 12:35:24;;;;;;;2.40;1.40;;;21.20;36.60;;;;;;5182005;28;20443;-46
2023/05/30 12:37:55;;;;;;;8.70;1.67;;;21.40;37.20;;;;;;5187590;28;20255;-45
2023/05/30 12:40:26;;;;;;;4.20;1.77;;;21.60;36.60;;;;;;5190756;28;20464;-45
2023/05/30 12:42:57;;;;;;;1.43;1.33;;;21.80;36.60;;;;;;5193763;28;20821;-45
2023/05/30 12:45:27;;;;;;;1.93;1.60;;;21.70;36.40;;;;;;5183587;28;20318;-45
2023/05/30 12:47:58;;;;;;;4.33;1.90;;;21.60;36.50;;;;;;5193305;28;20218;-46
2023/05/30 12:50:29;;;;;;;1.80;1.70;;;21.30;36.40;;;;;;5189323;28;20208;-46
2023/05/30 12:52:59;;;;;;;3.37;1.63;;;21.20;36.90;;;;;;5173095;28;20176;-46
2023/05/30 12:55:30;;;;;;;6.13;2.20;;;21.30;36.90;;;;;;5166844;28;20173;-46
2023/05/30 12:58:00;;;;;;;6.23;2.57;;;21.30;37.20;;;;;;5169066;28;20603;-44
2023/05/30 13:00:31;;;;;;;2.40;1.73;;;21.40;37.10;;;;;;5177295;28;20613;-45
2023/05/30 13:03:02;;;;;;;2.33;1.20;;;21.50;36.40;;;;;;5149925;28;20437;-47
2023/05/30 13:05:33;;;;;;;1.40;1.30;;;21.60;36.50;;;;;;5184156;28;20522;-45
2023/05/30 13:08:03;;;;;;;2.27;1.60;;;21.50;36.80;;;;;;5179676;28;20439;-43
2023/05/30 13:10:34;;;;;;;6.00;1.57;;;21.60;36.70;;;;;;5167362;28;20197;-46
2023/05/30 13:13:06;;;;;;;4.07;1.20;;;21.70;36.70;;;;;;5188043;28;20669;-44